sensor_id;sensor_type;location;lat;lon;timestamp;pressure;altitude;pressure_sealevel;temperature;humidity
13690;BME280;6917;52.194;9.894;2023-02-17T00:01:40;100673.75;;;7.65;100.00
13690;BME280;6917;52.194;9.894;2023-02-17T00:04:05;100660.72;;;7.67;100.00
13690;BME280;6917;52.194;9.894;2023-02-17T00:06:30;100663.69;;;7.65;100.00
13690;BME280;6917;52.194;9.894;2023-02-17T00:08:57;100668.59;;;7.63;100.00
13690;BME280;6917;52.194;9.894;2023-02-17T00:11:23;100662.66;;;7.61;100.00
13690;BME280;6917;52.194;9.894;2023-02-17T00:13:50;100664.28;;;7.62;100.00
13690;BME280;6917;52.194;9.894;2023-02-17T00:16:18;100650.69;;;7.62;100.00
13690;BME280;6917;52.194;9.894;2023-02-17T00:18:44;100653.41;;;7.62;100.00
13690;BME280;6917;52.194;9.894;2023-02-17T00:21:15;100659.88;;;7.66;100.00
13690;BME280;6917;52.194;9.894;2023-02-17T00:23:41;100646.81;;;7.68;100.00
13690;BME280;6917;52.194;9.894;2023-02-17T00:26:06;100652.25;;;7.68;100.00
13690;BME280;6917;52.194;9.894;2023-02-17T00:28:33;100648.16;;;7.71;100.00
13690;BME280;6917;52.194;9.894;2023-02-17T00:30:58;100643.53;;;7.71;100.00
13690;BME280;6917;52.194;9.894;2023-02-17T00:33:23;100641.63;;;7.72;100.00
13690;BME280;6917;52.194;9.894;2023-02-17T00:35:48;100640.00;;;7.71;100.00
13690;BME280;6917;52.194;9.894;2023-02-17T00:38:14;100639.19;;;7.70;100.00
13690;BME280;6917;52.194;9.894;2023-02-17T00:40:39;100635.66;;;7.70;100.00
13690;BME280;6917;52.194;9.894;2023-02-17T00:43:05;100645.72;;;7.69;100.00
13690;BME280;6917;52.194;9.894;2023-02-17T00:45:31;100630.50;;;7.68;100.00
13690;BME280;6917;52.194;9.894;2023-02-17T00:47:56;100630.22;;;7.70;100.00
13690;BME280;6917;52.194;9.894;2023-02-17T00:50:21;100626.19;;;7.67;100.00
13690;BME280;6917;52.194;9.894;2023-02-17T00:52:47;100625.91;;;7.64;100.00
13690;BME280;6917;52.194;9.894;2023-02-17T00:55:12;100628.09;;;7.67;100.00
13690;BME280;6917;52.194;9.894;2023-02-17T00:57:37;100632.13;;;7.69;100.00
13690;BME280;6917;52.194;9.894;2023-02-17T01:00:04;100626.69;;;7.69;100.00
13690;BME280;6917;52.194;9.894;2023-02-17T01:02:29;100628.31;;;7.70;100.00
13690;BME280;6917;52.194;9.894;2023-02-17T01:04:54;100626.09;;;7.72;100.00
13690;BME280;6917;52.194;9.894;2023-02-17T01:07:20;100625.25;;;7.77;100.00
13690;BME280;6917;52.194;9.894;2023-02-17T01:09:45;100615.69;;;7.80;100.00
13690;BME280;6917;52.194;9.894;2023-02-17T01:12:11;100606.16;;;7.82;100.00
13690;BME280;6917;52.194;9.894;2023-02-17T01:14:36;100617.03;;;7.82;100.00
13690;BME280;6917;52.194;9.894;2023-02-17T01:17:02;100612.41;;;7.83;100.00
13690;BME280;6917;52.194;9.894;2023-02-17T01:19:27;100620.56;;;7.83;100.00
13690;BME280;6917;52.194;9.894;2023-02-17T01:21:53;100617.56;;;7.84;100.00
13690;BME280;6917;52.194;9.894;2023-02-17T01:24:18;100602.06;;;7.85;100.00
13690;BME280;6917;52.194;9.894;2023-02-17T01:26:43;100604.47;;;7.86;100.00
13690;BME280;6917;52.194;9.894;2023-02-17T01:29:08;100600.94;;;7.86;100.00
13690;BME280;6917;52.194;9.894;2023-02-17T01:31:34;100605.28;;;7.87;100.00
13690;BME280;6917;52.194;9.894;2023-02-17T01:34:01;100605.50;;;7.90;100.00
13690;BME280;6917;52.194;9.894;2023-02-17T01:36:27;100606.31;;;7.91;100.00
13690;BME280;6917;52.194;9.894;2023-02-17T01:38:52;100595.44;;;7.91;100.00
13690;BME280;6917;52.194;9.894;2023-02-17T01:41:20;100594.34;;;7.92;100.00
13690;BME280;6917;52.194;9.894;2023-02-17T01:46:33;100589.72;;;7.92;100.00
13690;BME280;6917;52.194;9.894;2023-02-17T01:49:02;100571.47;;;7.93;100.00
13690;BME280;6917;52.194;9.894;2023-02-17T01:51:33;100573.91;;;7.94;100.00
13690;BME280;6917;52.194;9.894;2023-02-17T01:54:07;100567.91;;;7.97;100.00
13690;BME280;6917;52.194;9.894;2023-02-17T01:56:36;100554.53;;;8.01;100.00
13690;BME280;6917;52.194;9.894;2023-02-17T01:59:06;100532.47;;;8.02;100.00
13690;BME280;6917;52.194;9.894;2023-02-17T02:01:34;100537.91;;;8.02;100.00
13690;BME280;6917;52.194;9.894;2023-02-17T02:04:02;100531.34;;;8.03;100.00
13690;BME280;6917;52.194;9.894;2023-02-17T02:06:29;100527.81;;;8.03;100.00
13690;BME280;6917;52.194;9.894;2023-02-17T02:09:11;100515.25;;;8.07;100.00
13690;BME280;6917;52.194;9.894;2023-02-17T02:11:40;100514.13;;;8.08;100.00
13690;BME280;6917;52.194;9.894;2023-02-17T02:14:06;100512.53;;;8.07;100.00
13690;BME280;6917;52.194;9.894;2023-02-17T02:16:49;100517.41;;;8.10;100.00
13690;BME280;6917;52.194;9.894;2023-02-17T02:28:06;100514.47;;;8.25;100.00
13690;BME280;6917;52.194;9.894;2023-02-17T02:33:24;100510.09;;;8.24;100.00
13690;BME280;6917;52.194;9.894;2023-02-17T02:36:16;100501.94;;;8.24;100.00
13690;BME280;6917;52.194;9.894;2023-02-17T02:39:03;100512.81;;;8.24;100.00
13690;BME280;6917;52.194;9.894;2023-02-17T02:41:35;100517.19;;;8.25;100.00
13690;BME280;6917;52.194;9.894;2023-02-17T02:44:06;100505.19;;;8.26;100.00
13690;BME280;6917;52.194;9.894;2023-02-17T02:46:32;100504.41;;;8.26;100.00
13690;BME280;6917;52.194;9.894;2023-02-17T02:48:58;100500.28;;;8.28;100.00
13690;BME280;6917;52.194;9.894;2023-02-17T02:51:29;100497.53;;;8.28;100.00
13690;BME280;6917;52.194;9.894;2023-02-17T02:54:05;100491.50;;;8.31;100.00
13690;BME280;6917;52.194;9.894;2023-02-17T03:02:15;100488.72;;;8.37;100.00
13690;BME280;6917;52.194;9.894;2023-02-17T03:07:31;100466.38;;;8.40;100.00
13690;BME280;6917;52.194;9.894;2023-02-17T03:09:58;100466.28;;;8.45;100.00
13690;BME280;6917;52.194;9.894;2023-02-17T03:12:25;100461.66;;;8.45;100.00
13690;BME280;6917;52.194;9.894;2023-02-17T03:14:54;100461.88;;;8.49;100.00
13690;BME280;6917;52.194;9.894;2023-02-17T03:17:21;100448.56;;;8.47;100.00
13690;BME280;6917;52.194;9.894;2023-02-17T03:19:46;100462.97;;;8.48;100.00
13690;BME280;6917;52.194;9.894;2023-02-17T03:22:21;100461.56;;;8.50;100.00
13690;BME280;6917;52.194;9.894;2023-02-17T03:24:47;100459.34;;;8.52;100.00
13690;BME280;6917;52.194;9.894;2023-02-17T03:27:12;100453.09;;;8.52;100.00
13690;BME280;6917;52.194;9.894;2023-02-17T03:29:38;100458.78;;;8.55;100.00
13690;BME280;6917;52.194;9.894;2023-02-17T03:32:03;100455.75;;;8.57;100.00
13690;BME280;6917;52.194;9.894;2023-02-17T03:34:29;100451.91;;;8.58;100.00
13690;BME280;6917;52.194;9.894;2023-02-17T03:36:54;100454.13;;;8.56;100.00
13690;BME280;6917;52.194;9.894;2023-02-17T03:39:19;100451.72;;;8.54;100.00
13690;BME280;6917;52.194;9.894;2023-02-17T03:41:45;100456.88;;;8.56;100.00
13690;BME280;6917;52.194;9.894;2023-02-17T03:44:10;100449.19;;;8.58;100.00
13690;BME280;6917;52.194;9.894;2023-02-17T03:46:38;100446.19;;;8.59;100.00
13690;BME280;6917;52.194;9.894;2023-02-17T03:49:03;100445.06;;;8.60;100.00
13690;BME280;6917;52.194;9.894;2023-02-17T03:51:28;100460.28;;;8.61;100.00
13690;BME280;6917;52.194;9.894;2023-02-17T03:53:54;100447.50;;;8.62;100.00
13690;BME280;6917;52.194;9.894;2023-02-17T03:56:20;100446.38;;;8.63;100.00
13690;BME280;6917;52.194;9.894;2023-02-17T03:58:46;100437.09;;;8.64;100.00
13690;BME280;6917;52.194;9.894;2023-02-17T04:01:12;100429.75;;;8.64;100.00
13690;BME280;6917;52.194;9.894;2023-02-17T04:03:39;100430.53;;;8.65;100.00
13690;BME280;6917;52.194;9.894;2023-02-17T04:06:05;100422.06;;;8.67;100.00
13690;BME280;6917;52.194;9.894;2023-02-17T04:08:30;100415.81;;;8.66;100.00
13690;BME280;6917;52.194;9.894;2023-02-17T04:10:58;100422.88;;;8.67;100.00
13690;BME280;6917;52.194;9.894;2023-02-17T04:13:25;100417.44;;;8.67;100.00
13690;BME280;6917;52.194;9.894;2023-02-17T04:15:51;100417.97;;;8.69;100.00
13690;BME280;6917;52.194;9.894;2023-02-17T04:18:17;100416.88;;;8.70;100.00
13690;BME280;6917;52.194;9.894;2023-02-17T04:20:43;100417.38;;;8.72;100.00
13690;BME280;6917;52.194;9.894;2023-02-17T04:23:10;100422.41;;;8.79;100.00
13690;BME280;6917;52.194;9.894;2023-02-17T04:25:36;100418.28;;;8.81;100.00
13690;BME280;6917;52.194;9.894;2023-02-17T04:28:05;100415.78;;;8.85;100.00
13690;BME280;6917;52.194;9.894;2023-02-17T04:30:30;100408.09;;;8.87;100.00
13690;BME280;6917;52.194;9.894;2023-02-17T04:32:56;100417.09;;;8.87;100.00
13690;BME280;6917;52.194;9.894;2023-02-17T04:35:21;100411.63;;;8.87;100.00
13690;BME280;6917;52.194;9.894;2023-02-17T04:37:47;100431.72;;;8.91;100.00
13690;BME280;6917;52.194;9.894;2023-02-17T04:40:12;100426.25;;;8.91;100.00
13690;BME280;6917;52.194;9.894;2023-02-17T04:42:38;100446.44;;;8.90;100.00
13690;BME280;6917;52.194;9.894;2023-02-17T04:45:04;100437.78;;;8.88;100.00
13690;BME280;6917;52.194;9.894;2023-02-17T04:47:30;100433.75;;;8.86;100.00
13690;BME280;6917;52.194;9.894;2023-02-17T04:49:55;100443.31;;;8.83;100.00
13690;BME280;6917;52.194;9.894;2023-02-17T04:52:21;100434.63;;;8.81;100.00
13690;BME280;6917;52.194;9.894;2023-02-17T04:54:46;100428.66;;;8.79;100.00
13690;BME280;6917;52.194;9.894;2023-02-17T04:57:11;100401.41;;;8.79;100.00
13690;BME280;6917;52.194;9.894;2023-02-17T04:59:37;100395.97;;;8.79;100.00
13690;BME280;6917;52.194;9.894;2023-02-17T05:02:02;100389.41;;;8.80;100.00
13690;BME280;6917;52.194;9.894;2023-02-17T05:04:27;100392.94;;;8.81;100.00
13690;BME280;6917;52.194;9.894;2023-02-17T05:06:53;100402.97;;;8.85;100.00
13690;BME280;6917;52.194;9.894;2023-02-17T05:09:18;100391.25;;;8.85;100.00
13690;BME280;6917;52.194;9.894;2023-02-17T05:11:44;100400.25;;;8.85;100.00
13690;BME280;6917;52.194;9.894;2023-02-17T05:14:09;100399.13;;;8.86;100.00
13690;BME280;6917;52.194;9.894;2023-02-17T05:16:34;100388.22;;;8.86;100.00
13690;BME280;6917;52.194;9.894;2023-02-17T05:18:59;100379.56;;;8.84;100.00
13690;BME280;6917;52.194;9.894;2023-02-17T05:21:25;100374.31;;;8.88;100.00
13690;BME280;6917;52.194;9.894;2023-02-17T05:23:50;100381.56;;;8.92;100.00
13690;BME280;6917;52.194;9.894;2023-02-17T05:26:15;100369.25;;;8.95;100.00
13690;BME280;6917;52.194;9.894;2023-02-17T05:28:41;100368.66;;;8.98;100.00
13690;BME280;6917;52.194;9.894;2023-02-17T05:31:06;100356.53;;;9.04;100.00
13690;BME280;6917;52.194;9.894;2023-02-17T05:33:31;100371.47;;;9.07;100.00
13690;BME280;6917;52.194;9.894;2023-02-17T05:36:01;100356.97;;;9.11;100.00
13690;BME280;6917;52.194;9.894;2023-02-17T05:38:27;100354.63;;;9.18;100.00
13690;BME280;6917;52.194;9.894;2023-02-17T05:40:52;100353.38;;;9.24;100.00
13690;BME280;6917;52.194;9.894;2023-02-17T05:43:17;100350.88;;;9.28;100.00
13690;BME280;6917;52.194;9.894;2023-02-17T05:45:42;100364.22;;;9.30;100.00
13690;BME280;6917;52.194;9.894;2023-02-17T05:48:08;100362.78;;;9.32;100.00
13690;BME280;6917;52.194;9.894;2023-02-17T05:50:33;100356.72;;;9.35;100.00
13690;BME280;6917;52.194;9.894;2023-02-17T05:52:58;100358.63;;;9.35;100.00
13690;BME280;6917;52.194;9.894;2023-02-17T05:55:23;100353.69;;;9.37;100.00
13690;BME280;6917;52.194;9.894;2023-02-17T05:57:49;100361.56;;;9.38;100.00
13690;BME280;6917;52.194;9.894;2023-02-17T06:00:14;100358.25;;;9.41;100.00
13690;BME280;6917;52.194;9.894;2023-02-17T06:02:40;100360.97;;;9.41;100.00
13690;BME280;6917;52.194;9.894;2023-02-17T06:05:06;100357.94;;;9.43;100.00
13690;BME280;6917;52.194;9.894;2023-02-17T06:07:31;100357.31;;;9.46;100.00
13690;BME280;6917;52.194;9.894;2023-02-17T06:09:56;100337.41;;;9.45;100.00
13690;BME280;6917;52.194;9.894;2023-02-17T06:12:22;100354.78;;;9.49;100.00
13690;BME280;6917;52.194;9.894;2023-02-17T06:14:47;100352.03;;;9.49;100.00
13690;BME280;6917;52.194;9.894;2023-02-17T06:17:13;100351.94;;;9.54;100.00
13690;BME280;6917;52.194;9.894;2023-02-17T06:19:38;100363.84;;;9.59;100.00
13690;BME280;6917;52.194;9.894;2023-02-17T06:22:03;100357.28;;;9.60;100.00
13690;BME280;6917;52.194;9.894;2023-02-17T06:24:29;100371.72;;;9.60;100.00
13690;BME280;6917;52.194;9.894;2023-02-17T06:26:54;100360.50;;;9.62;100.00
13690;BME280;6917;52.194;9.894;2023-02-17T06:29:19;100372.72;;;9.64;100.00
13690;BME280;6917;52.194;9.894;2023-02-17T06:31:45;100366.97;;;9.66;100.00
13690;BME280;6917;52.194;9.894;2023-02-17T06:34:10;100366.66;;;9.67;100.00
13690;BME280;6917;52.194;9.894;2023-02-17T06:36:36;100376.66;;;9.72;100.00
13690;BME280;6917;52.194;9.894;2023-02-17T06:39:02;100378.28;;;9.73;100.00
13690;BME280;6917;52.194;9.894;2023-02-17T06:41:27;100368.97;;;9.74;100.00
13690;BME280;6917;52.194;9.894;2023-02-17T06:43:52;100377.53;;;9.81;100.00
13690;BME280;6917;52.194;9.894;2023-02-17T06:46:18;100375.50;;;9.87;100.00
13690;BME280;6917;52.194;9.894;2023-02-17T06:48:43;100364.91;;;9.85;100.00
13690;BME280;6917;52.194;9.894;2023-02-17T06:51:08;100351.53;;;9.83;100.00
13690;BME280;6917;52.194;9.894;2023-02-17T06:53:34;100348.00;;;9.83;100.00
13690;BME280;6917;52.194;9.894;2023-02-17T06:55:59;100337.91;;;9.83;100.00
13690;BME280;6917;52.194;9.894;2023-02-17T06:58:24;100353.38;;;9.88;100.00
13690;BME280;6917;52.194;9.894;2023-02-17T07:00:50;100354.16;;;9.89;100.00
13690;BME280;6917;52.194;9.894;2023-02-17T07:03:15;100353.38;;;9.88;100.00
13690;BME280;6917;52.194;9.894;2023-02-17T07:05:41;100343.75;;;9.91;100.00
13690;BME280;6917;52.194;9.894;2023-02-17T07:08:06;100357.38;;;9.91;100.00
13690;BME280;6917;52.194;9.894;2023-02-17T07:10:32;100343.44;;;9.92;100.00
13690;BME280;6917;52.194;9.894;2023-02-17T07:12:57;100353.22;;;9.93;100.00
13690;BME280;6917;52.194;9.894;2023-02-17T07:15:22;100357.56;;;9.94;100.00
13690;BME280;6917;52.194;9.894;2023-02-17T07:17:48;100366.56;;;9.95;100.00
13690;BME280;6917;52.194;9.894;2023-02-17T07:20:13;100373.13;;;9.94;100.00
13690;BME280;6917;52.194;9.894;2023-02-17T07:22:38;100346.66;;;9.94;100.00
13690;BME280;6917;52.194;9.894;2023-02-17T07:25:04;100341.09;;;9.99;100.00
13690;BME280;6917;52.194;9.894;2023-02-17T07:27:30;100343.03;;;9.99;100.00
13690;BME280;6917;52.194;9.894;2023-02-17T07:29:56;100339.97;;;10.00;100.00
13690;BME280;6917;52.194;9.894;2023-02-17T07:32:21;100337.25;;;10.00;100.00
13690;BME280;6917;52.194;9.894;2023-02-17T07:34:47;100335.00;;;10.02;100.00
13690;BME280;6917;52.194;9.894;2023-02-17T07:37:12;100356.53;;;10.04;100.00
13690;BME280;6917;52.194;9.894;2023-02-17T07:39:37;100345.63;;;10.04;100.00
13690;BME280;6917;52.194;9.894;2023-02-17T07:42:03;100317.69;;;10.07;100.00
13690;BME280;6917;52.194;9.894;2023-02-17T07:44:30;100299.06;;;10.09;100.00
13690;BME280;6917;52.194;9.894;2023-02-17T07:46:55;100310.16;;;10.12;100.00
13690;BME280;6917;52.194;9.894;2023-02-17T07:49:21;100302.50;;;10.14;100.00
13690;BME280;6917;52.194;9.894;2023-02-17T07:51:46;100310.88;;;10.18;100.00
13690;BME280;6917;52.194;9.894;2023-02-17T07:54:12;100306.53;;;10.17;100.00
13690;BME280;6917;52.194;9.894;2023-02-17T07:56:38;100282.75;;;10.18;100.00
13690;BME280;6917;52.194;9.894;2023-02-17T07:59:07;100278.59;;;10.20;100.00
13690;BME280;6917;52.194;9.894;2023-02-17T08:01:33;100304.81;;;10.21;100.00
13690;BME280;6917;52.194;9.894;2023-02-17T08:03:58;100294.97;;;10.20;100.00
13690;BME280;6917;52.194;9.894;2023-02-17T08:06:24;100288.91;;;10.23;100.00
13690;BME280;6917;52.194;9.894;2023-02-17T08:08:51;100278.81;;;10.24;100.00
13690;BME280;6917;52.194;9.894;2023-02-17T08:11:35;100283.44;;;10.23;100.00
13690;BME280;6917;52.194;9.894;2023-02-17T08:14:21;100277.19;;;10.23;100.00
13690;BME280;6917;52.194;9.894;2023-02-17T08:16:47;100274.94;;;10.25;100.00
13690;BME280;6917;52.194;9.894;2023-02-17T08:19:13;100260.50;;;10.24;100.00
13690;BME280;6917;52.194;9.894;2023-02-17T08:21:38;100279.00;;;10.27;100.00
13690;BME280;6917;52.194;9.894;2023-02-17T08:24:04;100281.41;;;10.29;100.00
13690;BME280;6917;52.194;9.894;2023-02-17T08:26:29;100286.88;;;10.29;100.00
13690;BME280;6917;52.194;9.894;2023-02-17T08:28:54;100284.31;;;10.32;100.00
13690;BME280;6917;52.194;9.894;2023-02-17T08:31:32;100294.13;;;10.33;100.00
13690;BME280;6917;52.194;9.894;2023-02-17T08:33:59;100283.69;;;10.35;100.00
13690;BME280;6917;52.194;9.894;2023-02-17T08:36:25;100277.41;;;10.35;100.00
13690;BME280;6917;52.194;9.894;2023-02-17T08:38:52;100284.50;;;10.36;100.00
13690;BME280;6917;52.194;9.894;2023-02-17T08:41:21;100270.19;;;10.39;100.00
13690;BME280;6917;52.194;9.894;2023-02-17T08:43:47;100251.09;;;10.39;100.00
13690;BME280;6917;52.194;9.894;2023-02-17T08:46:13;100249.16;;;10.39;100.00
13690;BME280;6917;52.194;9.894;2023-02-17T08:48:38;100247.75;;;10.42;100.00
13690;BME280;6917;52.194;9.894;2023-02-17T08:51:04;100264.31;;;10.46;100.00
13690;BME280;6917;52.194;9.894;2023-02-17T08:53:30;100246.00;;;10.46;100.00
13690;BME280;6917;52.194;9.894;2023-02-17T08:55:55;100250.97;;;10.44;100.00
13690;BME280;6917;52.194;9.894;2023-02-17T08:58:21;100238.44;;;10.43;100.00
13690;BME280;6917;52.194;9.894;2023-02-17T09:00:46;100233.28;;;10.41;100.00
13690;BME280;6917;52.194;9.894;2023-02-17T09:03:12;100240.03;;;10.44;100.00
13690;BME280;6917;52.194;9.894;2023-02-17T09:05:37;100233.44;;;10.45;100.00
13690;BME280;6917;52.194;9.894;2023-02-17T09:08:03;100233.13;;;10.47;100.00
13690;BME280;6917;52.194;9.894;2023-02-17T09:10:29;100235.06;;;10.46;100.00
13690;BME280;6917;52.194;9.894;2023-02-17T09:12:54;100224.63;;;10.48;100.00
13690;BME280;6917;52.194;9.894;2023-02-17T09:15:20;100226.88;;;10.46;100.00
13690;BME280;6917;52.194;9.894;2023-02-17T09:17:45;100212.09;;;10.47;100.00
13690;BME280;6917;52.194;9.894;2023-02-17T09:20:11;100206.31;;;10.49;100.00
13690;BME280;6917;52.194;9.894;2023-02-17T09:22:37;100203.75;;;10.52;100.00
13690;BME280;6917;52.194;9.894;2023-02-17T09:25:04;100190.09;;;10.52;100.00
13690;BME280;6917;52.194;9.894;2023-02-17T09:27:30;100200.38;;;10.55;100.00
13690;BME280;6917;52.194;9.894;2023-02-17T09:29:56;100188.63;;;10.55;100.00
13690;BME280;6917;52.194;9.894;2023-02-17T09:32:21;100200.88;;;10.57;100.00
13690;BME280;6917;52.194;9.894;2023-02-17T09:34:46;100218.41;;;10.56;100.00
13690;BME280;6917;52.194;9.894;2023-02-17T09:37:15;100205.72;;;10.60;100.00
13690;BME280;6917;52.194;9.894;2023-02-17T09:39:42;100212.28;;;10.59;100.00
13690;BME280;6917;52.194;9.894;2023-02-17T09:42:22;100211.16;;;10.60;100.00
13690;BME280;6917;52.194;9.894;2023-02-17T09:45:19;100218.06;;;10.58;100.00
13690;BME280;6917;52.194;9.894;2023-02-17T09:47:58;100201.69;;;10.58;100.00
13690;BME280;6917;52.194;9.894;2023-02-17T09:50:31;100217.75;;;10.59;100.00
13690;BME280;6917;52.194;9.894;2023-02-17T09:53:33;100200.09;;;10.57;100.00
13690;BME280;6917;52.194;9.894;2023-02-17T09:56:03;100207.94;;;10.58;100.00
13690;BME280;6917;52.194;9.894;2023-02-17T09:58:49;100204.91;;;10.60;100.00
13690;BME280;6917;52.194;9.894;2023-02-17T10:01:19;100223.38;;;10.63;100.00
13690;BME280;6917;52.194;9.894;2023-02-17T10:03:54;100196.88;;;10.63;100.00
13690;BME280;6917;52.194;9.894;2023-02-17T10:06:30;100215.84;;;10.60;100.00
13690;BME280;6917;52.194;9.894;2023-02-17T10:09:19;100226.59;;;10.56;100.00
13690;BME280;6917;52.194;9.894;2023-02-17T10:12:00;100237.81;;;10.55;100.00
13690;BME280;6917;52.194;9.894;2023-02-17T10:14:39;100219.81;;;10.54;100.00
13690;BME280;6917;52.194;9.894;2023-02-17T10:17:12;100227.69;;;10.55;100.00
13690;BME280;6917;52.194;9.894;2023-02-17T10:19:53;100211.00;;;10.57;100.00
13690;BME280;6917;52.194;9.894;2023-02-17T10:22:22;100205.03;;;10.55;100.00
13690;BME280;6917;52.194;9.894;2023-02-17T10:24:48;100232.34;;;10.55;100.00
13690;BME280;6917;52.194;9.894;2023-02-17T10:30:15;100200.09;;;10.57;100.00
13690;BME280;6917;52.194;9.894;2023-02-17T10:33:11;100197.03;;;10.58;100.00
13690;BME280;6917;52.194;9.894;2023-02-17T10:35:57;100167.13;;;10.62;100.00
13690;BME280;6917;52.194;9.894;2023-02-17T10:38:49;100174.84;;;10.68;100.00
13690;BME280;6917;52.194;9.894;2023-02-17T10:41:20;100165.25;;;10.71;100.00
13690;BME280;6917;52.194;9.894;2023-02-17T10:43:47;100177.63;;;10.77;100.00
13690;BME280;6917;52.194;9.894;2023-02-17T10:46:16;100188.88;;;10.84;100.00
13690;BME280;6917;52.194;9.894;2023-02-17T10:48:48;100167.81;;;10.85;100.00
13690;BME280;6917;52.194;9.894;2023-02-17T10:51:17;100161.25;;;10.86;100.00
13690;BME280;6917;52.194;9.894;2023-02-17T10:53:46;100161.72;;;10.88;100.00
13690;BME280;6917;52.194;9.894;2023-02-17T10:56:14;100143.88;;;10.90;100.00
13690;BME280;6917;52.194;9.894;2023-02-17T11:01:16;100143.06;;;10.98;100.00
13690;BME280;6917;52.194;9.894;2023-02-17T11:03:41;100150.31;;;11.03;100.00
13690;BME280;6917;52.194;9.894;2023-02-17T11:06:19;100136.16;;;11.10;100.00
13690;BME280;6917;52.194;9.894;2023-02-17T11:08:51;100110.25;;;11.16;100.00
13690;BME280;6917;52.194;9.894;2023-02-17T11:11:28;100117.97;;;11.22;100.00
13690;BME280;6917;52.194;9.894;2023-02-17T11:16:31;100096.09;;;11.31;100.00
13690;BME280;6917;52.194;9.894;2023-02-17T11:18:59;100115.72;;;11.33;100.00
13690;BME280;6917;52.194;9.894;2023-02-17T11:21:27;100100.56;;;11.36;100.00
13690;BME280;6917;52.194;9.894;2023-02-17T11:24:04;100093.16;;;11.36;100.00
13690;BME280;6917;52.194;9.894;2023-02-17T11:26:33;100085.09;;;11.40;100.00
13690;BME280;6917;52.194;9.894;2023-02-17T11:29:20;100094.13;;;11.40;100.00
13690;BME280;6917;52.194;9.894;2023-02-17T11:31:59;100110.06;;;11.47;100.00
13690;BME280;6917;52.194;9.894;2023-02-17T11:34:28;100091.84;;;11.51;100.00
13690;BME280;6917;52.194;9.894;2023-02-17T11:37:01;100094.72;;;11.54;100.00
13690;BME280;6917;52.194;9.894;2023-02-17T11:39:28;100092.16;;;11.58;100.00
13690;BME280;6917;52.194;9.894;2023-02-17T11:41:54;100099.72;;;11.61;100.00
13690;BME280;6917;52.194;9.894;2023-02-17T11:44:24;100100.81;;;11.69;100.00
13690;BME280;6917;52.194;9.894;2023-02-17T11:46:56;100113.03;;;11.71;100.00
13690;BME280;6917;52.194;9.894;2023-02-17T11:55:21;100088.38;;;11.88;98.79
13690;BME280;6917;52.194;9.894;2023-02-17T12:00:41;100065.81;;;11.91;96.11
13690;BME280;6917;52.194;9.894;2023-02-17T12:21:27;100076.16;;;12.15;93.23
13690;BME280;6917;52.194;9.894;2023-02-17T12:26:40;100082.59;;;12.19;92.94
13690;BME280;6917;52.194;9.894;2023-02-17T12:34:56;100048.00;;;12.36;92.13
13690;BME280;6917;52.194;9.894;2023-02-17T12:37:27;100049.94;;;12.35;91.34
13690;BME280;6917;52.194;9.894;2023-02-17T12:39:59;100072.31;;;12.37;90.99
13690;BME280;6917;52.194;9.894;2023-02-17T12:42:40;100084.22;;;12.41;91.33
13690;BME280;6917;52.194;9.894;2023-02-17T12:48:01;100097.72;;;12.46;89.52
13690;BME280;6917;52.194;9.894;2023-02-17T12:53:39;100103.38;;;12.41;89.70
13690;BME280;6917;52.194;9.894;2023-02-17T12:58:54;100116.19;;;12.29;89.48
13690;BME280;6917;52.194;9.894;2023-02-17T13:01:24;100118.31;;;12.23;88.52
13690;BME280;6917;52.194;9.894;2023-02-17T13:03:50;100120.13;;;12.19;88.95
13690;BME280;6917;52.194;9.894;2023-02-17T13:08:55;100114.88;;;12.05;89.63
13690;BME280;6917;52.194;9.894;2023-02-17T13:11:33;100126.97;;;12.04;89.71
13690;BME280;6917;52.194;9.894;2023-02-17T13:14:23;100127.28;;;12.03;89.64
13690;BME280;6917;52.194;9.894;2023-02-17T13:16:49;100126.81;;;12.01;90.62
13690;BME280;6917;52.194;9.894;2023-02-17T13:19:15;100130.34;;;12.01;90.59
13690;BME280;6917;52.194;9.894;2023-02-17T13:21:54;100110.38;;;12.01;90.94
13690;BME280;6917;52.194;9.894;2023-02-17T13:24:50;100108.47;;;12.01;91.20
13690;BME280;6917;52.194;9.894;2023-02-17T13:29:46;100122.28;;;12.05;90.85
13690;BME280;6917;52.194;9.894;2023-02-17T13:32:27;100155.00;;;12.01;91.78
13690;BME280;6917;52.194;9.894;2023-02-17T13:37:41;100140.00;;;11.99;92.05
13690;BME280;6917;52.194;9.894;2023-02-17T13:45:21;100156.16;;;11.91;93.12
13690;BME280;6917;52.194;9.894;2023-02-17T13:47:48;100153.56;;;11.95;92.70
13690;BME280;6917;52.194;9.894;2023-02-17T13:50:51;100185.13;;;11.93;94.07
13690;BME280;6917;52.194;9.894;2023-02-17T13:53:32;100183.53;;;11.74;96.21
13690;BME280;6917;52.194;9.894;2023-02-17T13:56:03;100199.03;;;11.53;99.90
13690;BME280;6917;52.194;9.894;2023-02-17T13:58:34;100175.38;;;11.40;100.00
13690;BME280;6917;52.194;9.894;2023-02-17T14:01:02;100178.47;;;11.29;100.00
13690;BME280;6917;52.194;9.894;2023-02-17T14:03:34;100167.19;;;11.22;100.00
13690;BME280;6917;52.194;9.894;2023-02-17T14:06:06;100174.75;;;11.17;100.00
13690;BME280;6917;52.194;9.894;2023-02-17T14:08:38;100185.38;;;11.18;100.00
13690;BME280;6917;52.194;9.894;2023-02-17T14:11:07;100177.50;;;11.17;100.00
13690;BME280;6917;52.194;9.894;2023-02-17T14:13:34;100168.63;;;11.11;100.00
13690;BME280;6917;52.194;9.894;2023-02-17T14:16:00;100170.56;;;11.11;100.00
13690;BME280;6917;52.194;9.894;2023-02-17T14:18:38;100160.09;;;11.13;100.00
13690;BME280;6917;52.194;9.894;2023-02-17T14:23:47;100168.94;;;11.10;100.00
13690;BME280;6917;52.194;9.894;2023-02-17T14:29:04;100182.63;;;11.01;100.00
13690;BME280;6917;52.194;9.894;2023-02-17T14:31:45;100181.97;;;10.95;100.00
13690;BME280;6917;52.194;9.894;2023-02-17T14:34:29;100184.06;;;10.90;100.00
13690;BME280;6917;52.194;9.894;2023-02-17T14:37:09;100178.25;;;10.83;100.00
13690;BME280;6917;52.194;9.894;2023-02-17T14:39:34;100165.72;;;10.82;100.00